Aviation Digital Data Service (ADDS)

Output produced by METARs form (1711 UTC 30 July 2014)
found at http://aviationweather.gov/adds/metars/
 
KLFT 301653Z 02006KT 10SM CLR 29/17 A3008 RMK AO2 SLP185 T02940172